createdAt,value
2022-11-29T00:01:37.511Z,74.42
2022-11-29T00:04:05.056Z,73.90
2022-11-29T00:06:34.683Z,74.29
2022-11-29T00:09:09.758Z,74.64
2022-11-29T00:11:59.082Z,74.65
2022-11-29T00:14:27.569Z,74.89
2022-11-29T00:17:04.424Z,74.75
2022-11-29T00:19:35.845Z,74.68
2022-11-29T00:22:05.633Z,74.20
2022-11-29T00:24:33.174Z,74.10
2022-11-29T00:27:04.206Z,74.40
2022-11-29T00:29:33.140Z,74.25
2022-11-29T00:32:00.287Z,73.90
2022-11-29T00:34:27.231Z,74.01
2022-11-29T00:36:53.902Z,74.43
2022-11-29T00:39:20.583Z,73.86
2022-11-29T00:41:47.319Z,73.25
2022-11-29T00:44:19.610Z,72.29
2022-11-29T00:46:47.414Z,71.60
2022-11-29T00:49:14.110Z,71.56
2022-11-29T00:51:40.765Z,72.21
2022-11-29T00:54:07.531Z,73.39
2022-11-29T00:56:34.145Z,74.44
2022-11-29T00:59:02.585Z,74.50
2022-11-29T01:01:29.550Z,75.14
2022-11-29T01:03:56.311Z,75.12
2022-11-29T01:06:23.162Z,75.09
2022-11-29T01:08:50.660Z,74.73
2022-11-29T01:11:27.269Z,74.09
2022-11-29T01:13:59.875Z,74.22
2022-11-29T01:16:28.444Z,73.89
2022-11-29T01:18:56.122Z,73.63
2022-11-29T01:21:24.646Z,73.78
2022-11-29T01:23:53.447Z,73.66
2022-11-29T01:26:24.209Z,73.67
2022-11-29T01:28:54.568Z,73.35
2022-11-29T01:31:39.332Z,73.60
2022-11-29T01:34:07.215Z,73.61
2022-11-29T01:36:39.397Z,73.59
2022-11-29T01:39:06.870Z,73.45
2022-11-29T01:41:35.549Z,73.19
2022-11-29T01:44:07.009Z,73.05
2022-11-29T01:46:37.243Z,73.08
2022-11-29T01:49:17.561Z,73.30
2022-11-29T01:51:58.119Z,73.63
2022-11-29T01:54:26.236Z,73.52
2022-11-29T01:56:53.188Z,73.90
2022-11-29T01:59:23.444Z,73.95
2022-11-29T02:01:53.056Z,73.51
2022-11-29T02:04:20.184Z,73.60
2022-11-29T02:06:46.896Z,73.95
2022-11-29T02:09:19.402Z,73.83
2022-11-29T02:12:29.924Z,74.00
2022-11-29T02:15:15.435Z,74.28
2022-11-29T02:18:04.814Z,73.84
2022-11-29T02:20:40.495Z,74.27
2022-11-29T02:23:10.001Z,74.38
2022-11-29T02:26:14.933Z,74.29
2022-11-29T02:29:12.636Z,74.53
2022-11-29T02:32:20.696Z,73.90
2022-11-29T02:35:11.895Z,74.87
2022-11-29T02:38:06.017Z,74.82
2022-11-29T02:41:01.068Z,75.27
2022-11-29T02:43:38.371Z,75.15
2022-11-29T02:46:32.650Z,75.20
2022-11-29T02:49:34.718Z,75.55
2022-11-29T02:52:38.728Z,75.67
2022-11-29T02:55:13.371Z,75.67
2022-11-29T02:57:55.524Z,75.60
2022-11-29T03:00:23.727Z,75.70
2022-11-29T03:03:05.934Z,75.64
2022-11-29T03:05:51.445Z,75.29
2022-11-29T03:08:30.523Z,75.05
2022-11-29T03:11:03.050Z,75.13
2022-11-29T03:13:36.617Z,75.35
2022-11-29T03:16:41.443Z,74.99
2022-11-29T03:19:31.410Z,75.08
2022-11-29T03:22:20.844Z,75.27
2022-11-29T03:24:54.870Z,74.48
2022-11-29T03:27:29.389Z,74.61
2022-11-29T03:30:02.810Z,74.36
2022-11-29T03:32:45.205Z,74.50
2022-11-29T03:35:20.779Z,74.65
2022-11-29T03:38:01.568Z,74.58
2022-11-29T03:40:50.307Z,74.32
2022-11-29T03:43:23.532Z,74.54
2022-11-29T03:46:05.091Z,74.23
2022-11-29T03:48:43.719Z,73.74
2022-11-29T03:51:20.057Z,73.78
2022-11-29T03:53:52.783Z,73.05
2022-11-29T03:56:25.762Z,73.50
2022-11-29T03:59:05.993Z,73.31
2022-11-29T04:01:56.806Z,74.01
2022-11-29T04:04:47.292Z,74.04
2022-11-29T04:07:20.189Z,73.97
2022-11-29T04:09:59.846Z,74.07
2022-11-29T04:12:51.115Z,74.26
2022-11-29T04:16:18.595Z,74.29
2022-11-29T04:19:19.638Z,74.19
2022-11-29T04:22:21.874Z,73.89
2022-11-29T04:25:03.772Z,74.14
2022-11-29T04:27:41.796Z,73.80
2022-11-29T04:30:19.927Z,74.28
2022-11-29T04:33:13.893Z,73.76
2022-11-29T04:36:11.563Z,74.24
2022-11-29T04:38:49.310Z,73.95
2022-11-29T04:41:40.251Z,74.08
2022-11-29T04:44:22.494Z,73.93
2022-11-29T04:47:26.841Z,74.19
2022-11-29T04:50:15.682Z,73.45
2022-11-29T04:52:48.427Z,73.63
2022-11-29T04:55:37.239Z,73.52
2022-11-29T04:58:20.071Z,73.09
2022-11-29T05:01:31.666Z,72.69
2022-11-29T05:04:19.563Z,72.81
2022-11-29T05:06:57.865Z,72.74
2022-11-29T05:10:01.192Z,72.42
2022-11-29T05:12:55.397Z,72.77
2022-11-29T05:15:44.098Z,72.70
2022-11-29T05:18:22.119Z,72.09
2022-11-29T05:20:59.280Z,72.24
2022-11-29T05:23:39.453Z,72.30
2022-11-29T05:26:23.024Z,72.24
2022-11-29T05:28:58.983Z,72.51
2022-11-29T05:32:04.609Z,72.29
2022-11-29T05:34:53.946Z,72.47
2022-11-29T05:38:05.166Z,72.25
2022-11-29T05:41:06.890Z,72.80
2022-11-29T05:43:36.362Z,72.82
2022-11-29T05:46:31.092Z,72.97
2022-11-29T05:49:27.849Z,73.05
2022-11-29T05:52:03.363Z,73.01
2022-11-29T05:54:37.277Z,72.74
2022-11-29T05:57:22.457Z,73.13
2022-11-29T05:59:51.145Z,72.56
2022-11-29T06:02:29.256Z,72.55
2022-11-29T06:05:06.821Z,72.38
2022-11-29T06:07:52.167Z,72.18
2022-11-29T06:10:21.388Z,72.08
2022-11-29T06:13:18.324Z,71.64
2022-11-29T06:16:16.679Z,71.95
2022-11-29T06:18:46.392Z,71.84
2022-11-29T06:21:40.492Z,71.49
2022-11-29T06:24:36.674Z,71.56
2022-11-29T06:27:24.383Z,71.60
2022-11-29T06:30:07.083Z,71.85
2022-11-29T06:32:50.495Z,71.60
2022-11-29T06:35:38.476Z,71.62
2022-11-29T06:38:31.725Z,71.58
2022-11-29T06:41:02.130Z,71.44
2022-11-29T06:43:31.027Z,71.59
2022-11-29T06:46:24.438Z,71.48
2022-11-29T06:49:02.527Z,71.36
2022-11-29T06:51:42.319Z,71.07
2022-11-29T06:54:22.670Z,71.12
2022-11-29T06:56:59.362Z,71.06
2022-11-29T06:59:31.977Z,70.81
2022-11-29T07:02:34.139Z,71.01
2022-11-29T07:05:13.814Z,70.78
2022-11-29T07:07:41.806Z,70.68
2022-11-29T07:10:19.671Z,70.71
2022-11-29T07:12:49.203Z,70.55
2022-11-29T07:15:19.461Z,70.38
2022-11-29T07:18:08.519Z,70.79
2022-11-29T07:21:00.434Z,70.95
2022-11-29T07:23:36.202Z,70.39
2022-11-29T07:26:22.777Z,70.59
2022-11-29T07:29:10.584Z,70.54
2022-11-29T07:32:02.201Z,70.22
2022-11-29T07:34:35.614Z,70.09
2022-11-29T07:37:11.579Z,69.64
2022-11-29T07:39:56.622Z,69.88
2022-11-29T07:42:36.796Z,69.99
2022-11-29T07:45:22.414Z,69.81
2022-11-29T07:47:50.202Z,69.31
2022-11-29T07:50:17.436Z,69.59
2022-11-29T07:52:44.150Z,69.37
2022-11-29T07:55:18.886Z,69.08
2022-11-29T07:57:46.897Z,69.29
2022-11-29T08:00:17.123Z,69.07
2022-11-29T08:02:44.095Z,69.03
2022-11-29T08:05:11.126Z,68.85
2022-11-29T08:07:39.918Z,68.85
2022-11-29T08:10:15.196Z,69.13
2022-11-29T08:12:44.471Z,68.86
2022-11-29T08:15:14.314Z,69.15
2022-11-29T08:17:46.440Z,68.63
2022-11-29T08:20:17.424Z,68.86
2022-11-29T08:22:44.560Z,68.98
2022-11-29T08:25:12.467Z,69.23
2022-11-29T08:27:39.332Z,69.11
2022-11-29T08:30:07.066Z,68.70
2022-11-29T08:32:34.315Z,69.43
2022-11-29T08:35:00.889Z,69.15
2022-11-29T08:37:27.458Z,69.32
2022-11-29T08:39:55.296Z,69.11
2022-11-29T08:42:22.115Z,69.05
2022-11-29T08:44:48.936Z,68.72
2022-11-29T08:47:34.160Z,69.05
2022-11-29T08:50:03.841Z,68.86
2022-11-29T08:52:50.793Z,68.28
2022-11-29T08:55:19.880Z,68.65
2022-11-29T08:57:47.466Z,68.41
2022-11-29T09:00:14.766Z,68.53
2022-11-29T09:02:41.483Z,68.09
2022-11-29T09:05:09.297Z,67.99
2022-11-29T09:07:36.385Z,68.04
2022-11-29T09:10:05.960Z,68.36
2022-11-29T09:12:32.808Z,67.33
2022-11-29T09:15:04.254Z,67.72
2022-11-29T09:17:31.146Z,67.70
2022-11-29T09:19:57.763Z,68.36
2022-11-29T09:22:24.391Z,68.30
2022-11-29T09:24:50.916Z,68.48
2022-11-29T09:27:17.797Z,68.56
2022-11-29T09:29:46.653Z,68.52
2022-11-29T09:32:13.291Z,68.51
2022-11-29T09:34:42.255Z,68.58
2022-11-29T09:37:09.093Z,68.17
2022-11-29T09:39:35.819Z,68.05
2022-11-29T09:42:09.601Z,68.09
2022-11-29T09:44:59.392Z,68.22
2022-11-29T09:47:57.967Z,67.91
2022-11-29T09:51:12.371Z,68.45
2022-11-29T09:54:24.267Z,68.64
2022-11-29T09:56:52.666Z,68.36
2022-11-29T09:59:47.902Z,68.05
2022-11-29T10:02:24.678Z,68.47
2022-11-29T10:05:01.661Z,68.15
2022-11-29T10:07:37.839Z,68.14
2022-11-29T10:10:17.020Z,68.34
2022-11-29T10:12:52.372Z,67.98
2022-11-29T10:15:53.627Z,67.77
2022-11-29T10:18:29.918Z,67.54
2022-11-29T10:21:02.471Z,67.32
2022-11-29T10:23:53.082Z,67.13
2022-11-29T10:26:20.790Z,67.35
2022-11-29T10:28:49.450Z,66.98
2022-11-29T10:31:43.318Z,67.56
2022-11-29T10:34:19.984Z,67.80
2022-11-29T10:37:02.707Z,67.73
2022-11-29T10:39:43.811Z,67.98
2022-11-29T10:42:40.532Z,67.84
2022-11-29T10:45:31.380Z,68.16
2022-11-29T10:48:06.588Z,68.10
2022-11-29T10:50:36.497Z,68.24
2022-11-29T10:53:10.532Z,67.42
2022-11-29T10:55:46.921Z,67.24
2022-11-29T10:58:28.304Z,67.42
2022-11-29T11:01:07.368Z,66.93
2022-11-29T11:03:35.929Z,67.16
2022-11-29T11:06:16.401Z,67.40
2022-11-29T11:08:49.818Z,66.96
2022-11-29T11:11:33.481Z,67.34
2022-11-29T11:14:17.009Z,67.25
2022-11-29T11:16:43.789Z,66.77
2022-11-29T11:19:32.045Z,66.71
2022-11-29T11:22:00.966Z,66.39
2022-11-29T11:24:33.150Z,66.79
2022-11-29T11:27:00.558Z,67.03
2022-11-29T11:29:39.776Z,67.03
2022-11-29T11:32:16.640Z,67.10
2022-11-29T11:34:53.823Z,67.22
2022-11-29T11:37:35.763Z,67.72
2022-11-29T11:40:29.504Z,67.97
2022-11-29T11:43:02.008Z,67.52
2022-11-29T11:45:35.072Z,67.37
2022-11-29T11:48:14.346Z,67.29
2022-11-29T11:50:45.171Z,67.97
2022-11-29T11:53:37.674Z,68.54
2022-11-29T11:56:10.181Z,68.31
2022-11-29T11:58:55.449Z,68.77
2022-11-29T12:01:38.223Z,68.85
2022-11-29T12:04:07.941Z,68.74
2022-11-29T12:06:43.891Z,68.61
2022-11-29T12:09:36.815Z,68.55
2022-11-29T12:12:13.455Z,68.51
2022-11-29T12:14:48.386Z,68.84
2022-11-29T12:17:21.371Z,68.66
2022-11-29T12:20:14.192Z,69.22
2022-11-29T12:23:00.480Z,69.12
2022-11-29T12:25:34.542Z,68.83
2022-11-29T12:28:01.408Z,68.49
2022-11-29T12:30:28.204Z,68.24
2022-11-29T12:32:57.860Z,68.30
2022-11-29T12:35:35.085Z,68.28
2022-11-29T12:38:16.523Z,68.11
2022-11-29T12:40:49.055Z,67.91
2022-11-29T12:43:28.364Z,67.70
2022-11-29T12:46:04.408Z,67.81
2022-11-29T12:48:31.190Z,67.21
2022-11-29T12:51:03.968Z,66.66
2022-11-29T12:53:30.557Z,66.93
2022-11-29T12:56:10.971Z,66.99
2022-11-29T12:59:00.598Z,67.80
2022-11-29T13:01:51.299Z,67.95
2022-11-29T13:04:44.595Z,68.18
2022-11-29T13:07:34.854Z,68.26
2022-11-29T13:10:18.305Z,68.28
2022-11-29T13:13:32.715Z,67.79
2022-11-29T13:16:30.672Z,67.79
2022-11-29T13:19:02.359Z,68.18
2022-11-29T13:21:46.475Z,67.82
2022-11-29T13:24:22.973Z,67.35
2022-11-29T13:26:50.149Z,67.50
2022-11-29T13:29:18.332Z,67.41
2022-11-29T13:31:46.803Z,67.34
2022-11-29T13:34:42.929Z,67.09
2022-11-29T13:37:40.554Z,67.33
2022-11-29T13:40:45.703Z,67.27
2022-11-29T13:43:38.826Z,66.91
2022-11-29T13:46:29.282Z,66.85
2022-11-29T13:48:56.184Z,66.94
2022-11-29T13:51:33.529Z,66.93
2022-11-29T13:54:05.881Z,67.18
2022-11-29T13:56:47.723Z,66.78
2022-11-29T13:59:23.581Z,67.02
2022-11-29T14:01:53.747Z,66.69
2022-11-29T14:04:45.240Z,66.46
2022-11-29T14:07:18.456Z,66.54
2022-11-29T14:10:06.853Z,66.76
2022-11-29T14:12:56.620Z,66.86
2022-11-29T14:15:31.794Z,67.05
2022-11-29T14:17:58.364Z,66.81
2022-11-29T14:20:25.189Z,67.03
2022-11-29T14:23:04.289Z,67.20
2022-11-29T14:25:52.582Z,67.04
2022-11-29T14:28:22.132Z,66.73
2022-11-29T14:31:01.900Z,67.36
2022-11-29T14:33:54.275Z,67.14
2022-11-29T14:36:30.227Z,67.71
2022-11-29T14:39:04.964Z,67.46
2022-11-29T14:41:59.614Z,67.65
2022-11-29T14:44:29.368Z,67.39
2022-11-29T14:47:19.610Z,67.33
2022-11-29T14:49:46.916Z,68.20
2022-11-29T14:52:13.546Z,67.83
2022-11-29T14:55:03.149Z,67.66
2022-11-29T14:57:47.775Z,67.92
2022-11-29T15:00:21.209Z,68.17
2022-11-29T15:02:52.056Z,68.03
2022-11-29T15:05:27.934Z,67.76
2022-11-29T15:08:15.120Z,67.58
2022-11-29T15:10:52.041Z,67.62
2022-11-29T15:13:31.700Z,67.77
2022-11-29T15:16:14.174Z,67.73
2022-11-29T15:19:13.231Z,67.46
2022-11-29T15:21:44.928Z,67.82
2022-11-29T15:24:14.755Z,67.86
2022-11-29T15:27:01.566Z,68.15
2022-11-29T15:29:30.616Z,67.79
2022-11-29T15:32:05.262Z,67.89
2022-11-29T15:34:42.952Z,67.95
2022-11-29T15:37:22.487Z,67.89
2022-11-29T15:40:01.447Z,68.16
2022-11-29T15:42:32.542Z,68.15
2022-11-29T15:45:01.901Z,67.91
2022-11-29T15:47:28.619Z,68.00
2022-11-29T15:49:55.573Z,67.52
2022-11-29T15:52:31.526Z,67.61
2022-11-29T15:55:05.561Z,67.45
2022-11-29T15:57:45.731Z,67.39
2022-11-29T16:00:23.129Z,67.79
2022-11-29T16:03:03.532Z,67.36
2022-11-29T16:05:36.936Z,67.59
2022-11-29T16:08:12.422Z,67.69
2022-11-29T16:10:52.893Z,67.86
2022-11-29T16:13:25.783Z,67.88
2022-11-29T16:16:20.090Z,67.92
2022-11-29T16:18:49.899Z,67.77
2022-11-29T16:21:22.581Z,68.18
2022-11-29T16:23:55.362Z,68.76
2022-11-29T16:26:31.357Z,68.49
2022-11-29T16:28:58.503Z,68.46
2022-11-29T16:31:36.760Z,68.81
2022-11-29T16:34:20.066Z,68.59
2022-11-29T16:36:47.227Z,68.45
2022-11-29T16:39:24.032Z,68.08
2022-11-29T16:42:14.643Z,68.24
2022-11-29T16:44:41.683Z,68.33
2022-11-29T16:47:23.444Z,68.04
2022-11-29T16:50:02.132Z,67.79
2022-11-29T16:52:31.853Z,67.78
2022-11-29T16:54:59.107Z,67.98
2022-11-29T16:57:27.446Z,67.74
2022-11-29T16:59:54.335Z,68.24
2022-11-29T17:02:21.051Z,67.60
2022-11-29T17:04:48.317Z,67.94
2022-11-29T17:07:39.268Z,68.26
2022-11-29T17:10:14.567Z,67.93
2022-11-29T17:12:47.988Z,67.84
2022-11-29T17:15:18.310Z,67.89
2022-11-29T17:17:44.874Z,67.76
2022-11-29T17:20:13.421Z,68.39
2022-11-29T17:22:40.610Z,68.33
2022-11-29T17:25:09.171Z,68.51
2022-11-29T17:27:36.412Z,68.26
2022-11-29T17:30:07.248Z,68.28
2022-11-29T17:32:35.647Z,68.15
2022-11-29T17:35:06.196Z,68.19
2022-11-29T17:37:33.213Z,68.33
2022-11-29T17:40:00.349Z,68.27
2022-11-29T17:42:27.039Z,68.42
2022-11-29T17:44:53.827Z,68.60
2022-11-29T17:47:26.338Z,68.82
2022-11-29T17:49:52.933Z,68.33
2022-11-29T17:52:34.531Z,68.18
2022-11-29T17:55:10.898Z,68.27
2022-11-29T17:57:37.649Z,68.50
2022-11-29T18:00:09.234Z,68.75
2022-11-29T18:02:36.218Z,68.80
2022-11-29T18:05:02.880Z,68.32
2022-11-29T18:07:32.060Z,68.27
2022-11-29T18:09:58.814Z,68.49
2022-11-29T18:12:27.503Z,68.47
2022-11-29T18:14:54.254Z,68.27
2022-11-29T18:17:20.784Z,68.57
2022-11-29T18:19:47.671Z,68.22
2022-11-29T18:22:16.340Z,68.67
2022-11-29T18:24:46.064Z,68.42
2022-11-29T18:27:16.076Z,68.67
2022-11-29T18:29:45.263Z,68.77
2022-11-29T18:32:12.153Z,68.72
2022-11-29T18:34:38.935Z,68.99
2022-11-29T18:37:13.988Z,68.77
2022-11-29T18:39:43.331Z,69.17
2022-11-29T18:42:10.779Z,69.26
2022-11-29T18:44:43.496Z,69.97
2022-11-29T18:47:13.022Z,69.85
2022-11-29T18:49:42.531Z,69.76
2022-11-29T18:52:09.184Z,69.61
2022-11-29T18:54:38.422Z,70.16
2022-11-29T18:57:05.110Z,70.01
2022-11-29T18:59:39.993Z,70.72
2022-11-29T19:02:07.037Z,70.62
2022-11-29T19:04:33.728Z,70.24
2022-11-29T19:07:01.462Z,70.13
2022-11-29T19:09:28.442Z,70.21
2022-11-29T19:11:55.223Z,69.92
2022-11-29T19:14:22.089Z,69.74
2022-11-29T19:16:50.179Z,69.97
2022-11-29T19:19:18.995Z,69.68
2022-11-29T19:21:46.646Z,69.85
2022-11-29T19:24:18.204Z,69.98
2022-11-29T19:26:48.384Z,69.87
2022-11-29T19:29:15.594Z,69.70
2022-11-29T19:31:42.872Z,70.06
2022-11-29T19:34:09.777Z,70.03
2022-11-29T19:36:43.056Z,70.24
2022-11-29T19:39:13.347Z,70.49
2022-11-29T19:41:43.011Z,70.44
2022-11-29T19:44:14.819Z,71.00
2022-11-29T19:46:47.007Z,70.72
2022-11-29T19:49:14.323Z,71.04
2022-11-29T19:51:41.552Z,70.58
2022-11-29T19:54:13.453Z,70.51
2022-11-29T19:56:51.942Z,70.70
2022-11-29T19:59:19.211Z,70.13
2022-11-29T20:01:50.836Z,69.93
2022-11-29T20:04:21.133Z,70.02
2022-11-29T20:06:47.942Z,69.84
2022-11-29T20:09:14.788Z,70.20
2022-11-29T20:11:41.541Z,69.95
2022-11-29T20:14:11.150Z,69.85
2022-11-29T20:16:38.937Z,70.16
2022-11-29T20:19:13.835Z,70.03
2022-11-29T20:21:48.875Z,70.10
2022-11-29T20:24:17.567Z,70.08
2022-11-29T20:26:46.239Z,69.80
2022-11-29T20:29:19.505Z,69.83
2022-11-29T20:32:02.685Z,69.53
2022-11-29T20:34:29.532Z,69.42
2022-11-29T20:37:33.532Z,69.70
2022-11-29T20:40:04.666Z,69.92
2022-11-29T20:42:41.415Z,69.90
2022-11-29T20:45:12.102Z,70.16
2022-11-29T20:47:56.138Z,70.28
2022-11-29T20:50:27.052Z,70.15
2022-11-29T20:53:16.702Z,70.53
2022-11-29T20:55:47.970Z,70.40
2022-11-29T20:58:15.993Z,70.64
2022-11-29T21:00:42.627Z,70.96
2022-11-29T21:03:13.347Z,71.35
2022-11-29T21:05:40.465Z,71.30
2022-11-29T21:08:07.548Z,71.58
2022-11-29T21:10:34.450Z,71.17
2022-11-29T21:13:01.620Z,71.10
2022-11-29T21:15:28.734Z,70.97
2022-11-29T21:17:56.605Z,71.13
2022-11-29T21:20:28.854Z,71.51
2022-11-29T21:23:04.946Z,71.57
2022-11-29T21:26:17.502Z,71.56
2022-11-29T21:28:57.474Z,71.44
2022-11-29T21:31:24.348Z,71.18
2022-11-29T21:33:51.446Z,71.99
2022-11-29T21:36:19.369Z,71.49
2022-11-29T21:38:52.346Z,71.67
2022-11-29T21:41:21.685Z,72.17
2022-11-29T21:44:06.587Z,72.15
2022-11-29T21:46:36.841Z,72.46
2022-11-29T21:49:04.689Z,72.24
2022-11-29T21:51:32.024Z,72.15
2022-11-29T21:53:58.724Z,71.99
2022-11-29T21:56:25.471Z,71.59
2022-11-29T21:58:54.484Z,71.30
2022-11-29T22:01:21.806Z,71.13
2022-11-29T22:03:48.465Z,70.73
2022-11-29T22:06:20.899Z,70.77
2022-11-29T22:08:48.360Z,70.30
2022-11-29T22:11:30.673Z,70.31
2022-11-29T22:14:14.460Z,70.29
2022-11-29T22:16:47.218Z,70.48
2022-11-29T22:19:20.067Z,70.03
2022-11-29T22:21:49.688Z,70.50
2022-11-29T22:24:18.775Z,70.31
2022-11-29T22:26:47.022Z,69.92
2022-11-29T22:29:14.936Z,69.98
2022-11-29T22:31:46.876Z,69.73
2022-11-29T22:34:14.333Z,69.79
2022-11-29T22:36:41.266Z,69.93
2022-11-29T22:39:08.907Z,70.06
2022-11-29T22:41:37.210Z,70.57
2022-11-29T22:44:05.175Z,70.98
2022-11-29T22:46:32.423Z,71.63
2022-11-29T22:49:00.730Z,72.13
2022-11-29T22:51:32.934Z,72.17
2022-11-29T22:54:01.536Z,71.89
2022-11-29T22:56:31.118Z,71.32
2022-11-29T22:58:58.418Z,71.21
2022-11-29T23:01:27.802Z,71.34
2022-11-29T23:03:58.619Z,71.40
2022-11-29T23:06:28.268Z,71.81
2022-11-29T23:08:56.244Z,71.03
2022-11-29T23:11:26.658Z,71.14
2022-11-29T23:13:54.214Z,70.89
2022-11-29T23:16:26.720Z,70.23
2022-11-29T23:18:54.834Z,70.06
2022-11-29T23:21:24.235Z,70.20
2022-11-29T23:23:56.036Z,69.88
2022-11-29T23:26:26.452Z,70.35
2022-11-29T23:28:53.575Z,69.90
2022-11-29T23:31:22.103Z,70.26
2022-11-29T23:33:49.265Z,70.21
2022-11-29T23:36:16.328Z,69.95
2022-11-29T23:38:45.796Z,70.51
2022-11-29T23:41:13.145Z,70.44
2022-11-29T23:43:41.151Z,69.85
2022-11-29T23:46:16.761Z,69.38
2022-11-29T23:48:43.541Z,69.57
2022-11-29T23:51:11.066Z,69.20
2022-11-29T23:53:39.399Z,69.01
2022-11-29T23:56:09.972Z,69.20
2022-11-29T23:58:36.863Z,69.30
